Time;durP1;ratioP1;P1;durP2;ratioP2;P2;SDS_P1;SDS_P2;PMS_P1;PMS_P2;Temp;Humidity;BMP_temperature;BMP_pressure;BME280_temperature;BME280_humidity;BME280_pressure;Samples;Min_cycle;Max_cycle;Signal;HPM_P1;HPM_P2
2021/05/21 00:01:45;;;;;;;9.70;1.17;;;11.30;81.50;;;;;;4826664;29;20082;-85
2021/05/21 00:04:20;;;;;;;2.42;1.17;;;11.20;81.30;;;;;;4828911;29;20066;-86
2021/05/21 00:06:57;;;;;;;4.05;1.40;;;11.20;81.20;;;;;;4814652;29;20071;-84
2021/05/21 00:09:24;;;;;;;4.47;1.67;;;11.20;82.10;;;;;;4795495;29;20282;-84
2021/05/21 00:11:51;;;;;;;4.05;1.63;;;11.10;82.10;;;;;;4799136;29;20218;-84
2021/05/21 00:14:20;;;;;;;4.07;1.55;;;11.20;82.10;;;;;;4793924;29;20105;-85
2021/05/21 00:16:48;;;;;;;4.25;1.15;;;11.10;82.30;;;;;;4804923;29;20050;-84
2021/05/21 00:19:15;;;;;;;2.25;1.00;;;11.10;82.80;;;;;;4794726;29;20334;-85
2021/05/21 00:21:42;;;;;;;3.25;1.38;;;11.10;82.90;;;;;;4811134;29;20059;-85
2021/05/21 00:24:10;;;;;;;3.67;1.50;;;11.00;82.90;;;;;;4786059;29;20050;-84
2021/05/21 00:26:38;;;;;;;2.67;1.27;;;11.10;82.70;;;;;;4795553;29;20061;-84
2021/05/21 00:29:07;;;;;;;5.20;1.40;;;11.10;82.60;;;;;;4797192;29;20066;-85
2021/05/21 00:31:34;;;;;;;4.20;1.17;;;11.10;82.90;;;;;;4826393;29;20078;-86
2021/05/21 00:34:12;;;;;;;4.72;1.75;;;11.00;83.00;;;;;;4824840;29;20059;-84
2021/05/21 00:36:40;;;;;;;3.40;1.50;;;11.00;83.40;;;;;;4806897;29;20276;-84
2021/05/21 00:39:07;;;;;;;4.43;1.98;;;11.00;83.10;;;;;;4801583;29;20055;-85
2021/05/21 00:41:35;;;;;;;2.63;1.60;;;10.90;83.70;;;;;;4811678;29;20066;-86
2021/05/21 00:44:06;;;;;;;7.53;2.47;;;10.80;83.80;;;;;;4795701;29;20054;-86
2021/05/21 00:46:34;;;;;;;5.38;2.28;;;10.70;84.00;;;;;;4796593;29;20321;-84
2021/05/21 00:49:02;;;;;;;3.78;1.52;;;10.70;84.20;;;;;;4812284;29;20069;-84
2021/05/21 00:51:29;;;;;;;3.78;1.52;;;10.70;84.10;;;;;;4790435;29;20062;-85
2021/05/21 00:53:58;;;;;;;4.10;1.80;;;10.70;84.40;;;;;;4795576;29;20070;-84
2021/05/21 00:56:26;;;;;;;6.00;1.80;;;10.60;84.50;;;;;;4807556;29;20053;-86
2021/05/21 00:58:54;;;;;;;8.75;2.08;;;10.60;84.30;;;;;;4810247;29;20066;-84
2021/05/21 01:01:22;;;;;;;3.13;1.48;;;10.50;84.40;;;;;;4804751;29;20066;-84
2021/05/21 01:03:50;;;;;;;2.80;1.20;;;10.50;84.70;;;;;;4778221;29;20062;-84
2021/05/21 01:06:17;;;;;;;4.32;1.20;;;10.50;84.70;;;;;;4807863;29;20118;-85
2021/05/21 01:08:44;;;;;;;4.47;1.60;;;10.50;84.50;;;;;;4824993;29;20045;-87
2021/05/21 01:11:11;;;;;;;3.97;1.30;;;10.50;84.40;;;;;;4823433;29;20058;-84
2021/05/21 01:13:38;;;;;;;3.92;1.23;;;10.50;84.60;;;;;;4826988;29;20046;-83
2021/05/21 01:16:06;;;;;;;4.78;1.55;;;10.30;84.70;;;;;;4817415;29;20371;-86
2021/05/21 01:18:33;;;;;;;2.47;1.13;;;10.40;84.70;;;;;;4810172;29;20063;-87
2021/05/21 01:21:03;;;;;;;4.65;1.80;;;10.30;84.80;;;;;;4806860;29;20066;-86
2021/05/21 01:23:31;;;;;;;5.13;1.83;;;10.40;84.80;;;;;;4807892;29;20114;-85
2021/05/21 01:25:58;;;;;;;4.60;1.63;;;10.30;84.80;;;;;;4809426;29;20049;-85
2021/05/21 01:28:26;;;;;;;3.65;1.17;;;10.10;85.50;;;;;;4795573;29;20062;-83
2021/05/21 01:30:54;;;;;;;4.18;1.70;;;10.10;85.60;;;;;;4793295;29;20069;-85
2021/05/21 01:33:22;;;;;;;3.72;1.60;;;10.00;85.80;;;;;;4794159;29;20058;-84
2021/05/21 01:35:50;;;;;;;5.80;2.35;;;10.10;85.50;;;;;;4809163;29;20086;-84
2021/05/21 01:38:18;;;;;;;3.80;1.75;;;10.10;85.40;;;;;;4826766;29;20092;-84
2021/05/21 01:40:46;;;;;;;3.33;1.45;;;10.10;85.40;;;;;;4823154;29;20062;-87
2021/05/21 01:43:14;;;;;;;3.83;1.75;;;10.10;85.10;;;;;;4801809;29;20075;-85
2021/05/21 01:45:42;;;;;;;2.47;1.40;;;9.90;85.80;;;;;;4809482;29;20101;-88
2021/05/21 01:48:11;;;;;;;3.28;1.70;;;10.00;86.10;;;;;;4827755;29;20254;-86
2021/05/21 01:50:38;;;;;;;2.78;1.10;;;10.00;86.00;;;;;;4802771;29;20051;-85
2021/05/21 01:53:11;;;;;;;4.15;1.40;;;10.10;85.90;;;;;;4820500;29;20069;-84
2021/05/21 01:55:39;;;;;;;3.45;1.42;;;10.10;86.00;;;;;;4809387;29;20111;-83
2021/05/21 01:58:08;;;;;;;3.20;1.40;;;10.10;86.00;;;;;;4811136;29;20066;-84
2021/05/21 02:00:35;;;;;;;4.90;1.50;;;10.10;85.70;;;;;;4789264;29;20050;-86
2021/05/21 02:03:07;;;;;;;2.78;1.42;;;10.10;85.90;;;;;;4789749;29;20119;-84
2021/05/21 02:05:34;;;;;;;5.18;1.60;;;10.10;85.80;;;;;;4809033;29;20050;-85
2021/05/21 02:08:01;;;;;;;4.50;1.33;;;10.20;85.60;;;;;;4798381;29;20038;-85
2021/05/21 02:10:28;;;;;;;4.90;1.42;;;10.20;85.40;;;;;;4805574;29;20043;-85
2021/05/21 02:12:56;;;;;;;1.95;1.15;;;10.30;85.00;;;;;;4791032;29;20051;-84
2021/05/21 02:15:25;;;;;;;3.67;1.40;;;10.20;85.10;;;;;;4790917;29;20070;-85
2021/05/21 02:17:52;;;;;;;3.90;1.40;;;10.30;84.80;;;;;;4790208;29;20043;-85
2021/05/21 02:20:19;;;;;;;3.03;1.15;;;10.40;85.00;;;;;;4793510;29;20062;-85
2021/05/21 02:22:46;;;;;;;3.45;1.05;;;10.40;84.90;;;;;;4807542;29;20374;-85
2021/05/21 02:25:14;;;;;;;3.47;1.30;;;10.40;84.60;;;;;;4806806;29;20102;-86
2021/05/21 02:27:41;;;;;;;3.22;1.17;;;10.40;84.60;;;;;;4820043;29;20110;-85
2021/05/21 02:30:11;;;;;;;3.88;1.40;;;10.30;85.00;;;;;;4805909;29;20046;-84
2021/05/21 02:32:39;;;;;;;5.50;1.33;;;10.30;85.20;;;;;;4804815;29;20059;-84
2021/05/21 02:35:08;;;;;;;3.72;1.70;;;10.30;85.10;;;;;;4805120;29;20543;-83
2021/05/21 02:37:35;;;;;;;3.08;1.40;;;10.40;85.00;;;;;;4807459;29;20063;-85
2021/05/21 02:40:03;;;;;;;4.00;1.50;;;10.30;85.00;;;;;;4809074;29;20097;-86
2021/05/21 02:42:30;;;;;;;3.15;1.10;;;10.30;85.00;;;;;;4806299;29;20069;-86
2021/05/21 02:44:57;;;;;;;2.30;1.33;;;10.30;85.20;;;;;;4789692;29;20321;-87
2021/05/21 02:47:25;;;;;;;3.65;1.17;;;10.30;85.00;;;;;;4794310;29;20402;-86
2021/05/21 02:49:58;;;;;;;3.38;1.27;;;10.30;84.90;;;;;;4808281;29;20081;-84
2021/05/21 02:52:26;;;;;;;4.63;1.38;;;10.20;84.80;;;;;;4808665;29;20068;-84
2021/05/21 02:54:53;;;;;;;4.85;1.10;;;10.20;84.80;;;;;;4809032;29;20058;-85
2021/05/21 02:57:23;;;;;;;1.77;1.05;;;10.10;85.30;;;;;;4790823;29;20051;-85
2021/05/21 02:59:53;;;;;;;5.70;1.30;;;9.90;85.60;;;;;;4816367;29;20053;-86
2021/05/21 03:02:20;;;;;;;2.13;1.10;;;9.70;86.40;;;;;;4798423;29;20086;-84
2021/05/21 03:04:48;;;;;;;3.17;1.45;;;9.70;86.50;;;;;;4822467;29;20061;-82
2021/05/21 03:07:16;;;;;;;3.85;1.13;;;9.70;86.50;;;;;;4809279;29;20050;-83
2021/05/21 03:09:43;;;;;;;2.47;1.10;;;9.60;86.80;;;;;;4804852;29;20351;-85
2021/05/21 03:12:11;;;;;;;5.40;1.20;;;9.60;87.10;;;;;;4808662;29;20043;-85
2021/05/21 03:14:38;;;;;;;2.10;1.00;;;9.50;87.30;;;;;;4805300;29;20059;-84
2021/05/21 03:17:05;;;;;;;2.03;0.93;;;9.60;86.90;;;;;;4791599;29;20051;-86
2021/05/21 03:19:32;;;;;;;4.40;1.70;;;9.60;86.90;;;;;;4806809;29;20055;-85
2021/05/21 03:22:00;;;;;;;2.90;1.00;;;9.60;86.70;;;;;;4809579;29;20057;-84
2021/05/21 03:24:30;;;;;;;3.33;1.42;;;9.60;86.80;;;;;;4801325;29;20114;-83
2021/05/21 03:26:57;;;;;;;3.80;1.08;;;9.60;86.80;;;;;;4807410;29;20051;-85
2021/05/21 03:29:24;;;;;;;2.13;1.02;;;9.60;86.70;;;;;;4808721;29;20111;-84
2021/05/21 03:31:51;;;;;;;3.13;1.45;;;9.60;86.70;;;;;;4823211;29;20078;-84
2021/05/21 03:34:18;;;;;;;3.63;1.50;;;9.70;86.50;;;;;;4808906;29;20076;-85
2021/05/21 03:36:46;;;;;;;3.72;1.27;;;9.70;86.90;;;;;;4810241;29;20055;-84
2021/05/21 03:39:14;;;;;;;3.00;1.33;;;9.60;86.70;;;;;;4810631;29;20066;-84
2021/05/21 03:41:42;;;;;;;2.05;1.15;;;9.60;86.80;;;;;;4792009;29;20229;-84
2021/05/21 03:44:09;;;;;;;3.75;1.60;;;9.80;87.40;;;;;;4814279;29;20062;-85
2021/05/21 03:46:36;;;;;;;4.00;1.50;;;9.80;86.10;;;;;;4808669;29;20054;-83
2021/05/21 03:49:04;;;;;;;5.38;1.35;;;9.80;86.10;;;;;;4797810;29;20111;-85
2021/05/21 03:51:31;;;;;;;3.65;1.60;;;9.70;86.30;;;;;;4826742;29;20061;-86
2021/05/21 03:53:59;;;;;;;4.22;1.17;;;9.70;86.30;;;;;;4811679;29;20332;-82
2021/05/21 03:56:35;;;;;;;1.80;0.98;;;9.70;86.30;;;;;;4797951;29;20035;-86
2021/05/21 03:59:05;;;;;;;2.90;0.90;;;9.80;85.60;;;;;;4804189;29;20062;-85
2021/05/21 04:01:32;;;;;;;3.38;1.17;;;9.80;85.50;;;;;;4791959;29;20054;-84
2021/05/21 04:03:59;;;;;;;2.28;1.00;;;9.90;85.40;;;;;;4825262;29;20246;-84
2021/05/21 04:06:26;;;;;;;2.25;0.93;;;9.90;85.30;;;;;;4810541;29;20051;-83
2021/05/21 04:08:53;;;;;;;1.15;0.85;;;10.00;85.00;;;;;;4789231;29;20063;-84
2021/05/21 04:11:20;;;;;;;5.28;1.27;;;10.10;84.60;;;;;;4796395;29;20055;-85
2021/05/21 04:13:50;;;;;;;3.15;1.30;;;10.10;84.30;;;;;;4811006;29;20566;-84
2021/05/21 04:16:17;;;;;;;4.82;1.10;;;10.20;84.30;;;;;;4811022;29;20483;-86
2021/05/21 04:18:44;;;;;;;2.63;1.35;;;10.30;85.00;;;;;;4811771;29;20058;-84
2021/05/21 04:21:11;;;;;;;3.00;1.10;;;10.70;80.00;;;;;;4820796;29;20066;-84
2021/05/21 04:23:39;;;;;;;2.53;1.13;;;10.80;81.10;;;;;;4796318;29;20081;-86
2021/05/21 04:26:07;;;;;;;1.23;0.75;;;10.80;80.10;;;;;;4806235;29;20054;-84
2021/05/21 04:28:34;;;;;;;4.75;0.93;;;10.90;79.30;;;;;;4798853;29;20238;-85
2021/05/21 04:31:03;;;;;;;4.05;0.88;;;11.10;78.60;;;;;;4801316;29;20058;-84
2021/05/21 04:33:30;;;;;;;4.22;0.70;;;11.20;79.40;;;;;;4797375;29;20063;-84
2021/05/21 04:35:59;;;;;;;2.92;0.55;;;11.30;76.50;;;;;;4797812;29;20207;-84
2021/05/21 04:38:27;;;;;;;3.10;0.77;;;11.40;76.00;;;;;;4809739;29;20070;-84
2021/05/21 04:40:55;;;;;;;0.60;0.40;;;11.50;77.00;;;;;;4799084;29;20055;-85
2021/05/21 04:43:23;;;;;;;0.60;0.47;;;11.60;75.40;;;;;;4825420;29;20046;-86
2021/05/21 04:45:50;;;;;;;1.00;0.50;;;11.70;73.30;;;;;;4825530;29;20136;-87
2021/05/21 04:48:18;;;;;;;1.20;0.50;;;11.80;73.60;;;;;;4811439;29;20063;-83
2021/05/21 04:50:46;;;;;;;2.80;0.65;;;12.00;71.40;;;;;;4806759;29;20081;-84
2021/05/21 04:53:13;;;;;;;2.45;0.80;;;12.10;71.10;;;;;;4814980;29;20128;-84
2021/05/21 04:55:41;;;;;;;3.58;0.50;;;12.20;73.50;;;;;;4811559;29;20054;-85
2021/05/21 04:58:10;;;;;;;2.97;0.40;;;12.20;70.00;;;;;;4816702;29;20094;-83
2021/05/21 05:00:39;;;;;;;2.20;0.50;;;12.40;69.80;;;;;;4793011;29;20047;-85
2021/05/21 05:03:07;;;;;;;1.45;0.55;;;12.50;69.90;;;;;;4807914;29;20065;-86
2021/05/21 05:05:48;;;;;;;2.10;0.60;;;12.60;69.30;;;;;;4197714;29;10001402;-88
2021/05/21 05:08:16;;;;;;;2.08;0.70;;;12.70;69.70;;;;;;1323584;29;10002192;-86
2021/05/21 05:10:44;;;;;;;0.77;0.30;;;12.80;69.20;;;;;;4810335;29;20147;-86
2021/05/21 05:13:13;;;;;;;0.90;0.30;;;12.90;68.00;;;;;;4820133;29;20062;-86
2021/05/21 05:15:43;;;;;;;3.05;0.70;;;12.90;67.60;;;;;;4827968;29;20047;-85
2021/05/21 05:18:11;;;;;;;1.50;0.65;;;13.00;66.20;;;;;;4811044;29;23212;-84
2021/05/21 05:20:38;;;;;;;3.17;0.63;;;13.10;66.00;;;;;;4794636;29;20219;-83
2021/05/21 05:23:08;;;;;;;1.38;0.60;;;13.20;66.30;;;;;;4824973;29;20071;-82
2021/05/21 05:25:35;;;;;;;0.93;0.65;;;13.30;64.90;;;;;;4811591;29;20277;-83
2021/05/21 05:28:02;;;;;;;1.50;0.57;;;13.40;65.10;;;;;;4814145;29;20096;-84
2021/05/21 05:30:30;;;;;;;1.52;0.52;;;13.50;64.80;;;;;;4826069;29;20066;-86
2021/05/21 05:32:57;;;;;;;2.83;0.88;;;13.70;65.10;;;;;;4812258;29;20361;-83
2021/05/21 05:35:24;;;;;;;3.47;0.88;;;13.90;64.40;;;;;;4812741;29;20083;-84
2021/05/21 05:37:52;;;;;;;3.35;0.95;;;14.00;65.20;;;;;;4809047;29;20118;-83
2021/05/21 05:40:21;;;;;;;2.75;0.73;;;14.00;64.60;;;;;;4810761;29;20058;-86
2021/05/21 05:42:47;;;;;;;1.65;0.65;;;14.10;63.60;;;;;;4810258;29;21521;-83
2021/05/21 05:45:15;;;;;;;1.00;0.40;;;14.20;61.70;;;;;;4810304;29;20050;-85
2021/05/21 05:47:44;;;;;;;2.45;0.63;;;14.30;61.10;;;;;;4809244;29;20054;-84
2021/05/21 05:50:11;;;;;;;2.85;0.38;;;14.40;61.10;;;;;;4810585;29;20139;-84
2021/05/21 05:52:39;;;;;;;0.55;0.45;;;14.50;60.30;;;;;;4821446;29;20118;-84
2021/05/21 05:55:08;;;;;;;2.05;0.30;;;14.60;58.10;;;;;;4808521;29;20127;-83
2021/05/21 05:57:36;;;;;;;1.10;0.40;;;14.60;59.60;;;;;;4809270;29;20039;-83
2021/05/21 06:00:04;;;;;;;0.43;0.25;;;14.70;58.40;;;;;;4793820;29;20078;-85
2021/05/21 06:02:32;;;;;;;1.70;0.40;;;14.70;58.40;;;;;;4808290;29;20276;-84
2021/05/21 06:05:02;;;;;;;3.70;0.63;;;14.80;58.70;;;;;;4788792;29;20439;-86
2021/05/21 06:07:40;;;;;;;0.45;0.30;;;14.80;58.50;;;;;;4823493;29;20050;-85
2021/05/21 06:10:08;;;;;;;0.60;0.30;;;15.00;56.90;;;;;;4794763;29;20080;-84
2021/05/21 06:12:36;;;;;;;0.68;0.38;;;15.20;56.90;;;;;;4809582;29;20062;-86
2021/05/21 06:15:04;;;;;;;1.80;0.40;;;15.20;55.70;;;;;;4807763;29;20084;-84
2021/05/21 06:17:31;;;;;;;1.08;0.55;;;15.40;56.10;;;;;;4797388;29;20062;-85
2021/05/21 06:19:58;;;;;;;1.45;0.47;;;15.40;55.10;;;;;;4791112;29;20110;-85
2021/05/21 06:22:25;;;;;;;1.55;0.30;;;15.40;54.50;;;;;;4805216;29;20051;-84
2021/05/21 06:24:52;;;;;;;1.30;0.30;;;15.40;54.50;;;;;;4794934;29;20070;-84
2021/05/21 06:27:24;;;;;;;1.98;0.30;;;15.60;54.80;;;;;;4802961;29;20460;-85
2021/05/21 06:29:52;;;;;;;2.97;0.40;;;15.60;54.60;;;;;;4810732;29;20074;-83
2021/05/21 06:32:19;;;;;;;1.00;0.45;;;15.70;54.00;;;;;;4807879;29;20059;-84
2021/05/21 06:34:46;;;;;;;3.25;0.43;;;16.00;54.40;;;;;;4809346;29;20070;-84
2021/05/21 06:37:15;;;;;;;0.68;0.40;;;16.00;52.30;;;;;;4810401;29;20062;-83
2021/05/21 06:39:44;;;;;;;1.85;0.30;;;16.00;51.70;;;;;;4823154;29;20257;-87
2021/05/21 06:42:11;;;;;;;1.23;0.45;;;16.00;52.40;;;;;;4823179;29;20070;-84
2021/05/21 06:44:38;;;;;;;1.10;0.68;;;16.00;52.70;;;;;;4794036;29;20043;-85
2021/05/21 06:47:06;;;;;;;1.02;0.40;;;16.00;52.10;;;;;;4793257;29;20068;-85
2021/05/21 06:49:36;;;;;;;0.50;0.30;;;16.10;51.90;;;;;;4786951;29;20047;-83
2021/05/21 06:52:03;;;;;;;;;;;16.00;51.50;;;;;;4813583;29;20055;-88
2021/05/21 06:54:30;;;;;;;1.73;0.43;;;16.00;51.30;;;;;;4794541;29;20172;-86
2021/05/21 06:56:57;;;;;;;0.30;0.20;;;16.10;50.70;;;;;;4795976;29;20054;-84
2021/05/21 06:59:24;;;;;;;0.30;0.20;;;16.00;51.50;;;;;;4810111;29;20046;-84
2021/05/21 07:01:51;;;;;;;0.95;0.28;;;16.00;51.90;;;;;;4821685;29;20050;-83
2021/05/21 07:04:19;;;;;;;0.80;0.30;;;16.10;52.30;;;;;;4790944;29;20122;-83
2021/05/21 07:06:47;;;;;;;1.10;0.40;;;16.10;51.70;;;;;;4807396;29;20058;-85
2021/05/21 07:09:14;;;;;;;3.42;0.40;;;16.10;51.10;;;;;;4793731;29;20378;-84
2021/05/21 07:11:42;;;;;;;1.02;0.40;;;16.10;51.90;;;;;;4824567;29;20058;-82
2021/05/21 07:14:10;;;;;;;0.85;0.30;;;16.10;51.60;;;;;;4809307;29;20063;-82
2021/05/21 07:16:38;;;;;;;0.70;0.40;;;16.00;52.00;;;;;;4823566;29;20059;-83
2021/05/21 07:19:05;;;;;;;4.20;0.50;;;16.10;52.00;;;;;;4782893;29;20071;-83
2021/05/21 07:21:33;;;;;;;2.15;0.40;;;16.10;52.40;;;;;;4797627;29;20095;-86
2021/05/21 07:24:07;;;;;;;2.13;0.40;;;16.10;52.20;;;;;;4826774;29;20302;-87
2021/05/21 07:26:34;;;;;;;0.65;0.20;;;16.10;51.70;;;;;;4805501;29;20179;-85
2021/05/21 07:29:01;;;;;;;1.42;0.47;;;16.10;52.20;;;;;;4823141;29;20051;-84
2021/05/21 07:31:31;;;;;;;1.13;0.70;;;16.20;52.40;;;;;;4796903;29;20047;-84
2021/05/21 07:33:59;;;;;;;1.58;0.45;;;16.20;51.50;;;;;;4811174;29;20050;-85
2021/05/21 07:36:29;;;;;;;0.47;0.30;;;16.10;51.20;;;;;;4795554;29;20065;-83
2021/05/21 07:38:57;;;;;;;1.00;0.30;;;16.20;51.50;;;;;;4809366;29;20059;-85
2021/05/21 07:41:26;;;;;;;0.30;0.30;;;16.10;51.50;;;;;;4828728;29;20050;-86
2021/05/21 07:43:55;;;;;;;1.58;0.40;;;16.10;51.80;;;;;;4790630;29;20062;-84
2021/05/21 07:46:23;;;;;;;1.25;0.40;;;16.30;51.70;;;;;;4812849;29;20465;-85
2021/05/21 07:48:50;;;;;;;0.85;0.40;;;16.20;50.40;;;;;;4809695;29;20216;-83
2021/05/21 07:51:18;;;;;;;9.57;4.05;;;16.20;51.30;;;;;;4811862;29;20073;-83
2021/05/21 07:53:45;;;;;;;3.08;0.40;;;16.10;51.70;;;;;;4815613;29;20066;-85
2021/05/21 07:56:13;;;;;;;1.42;0.40;;;16.10;51.70;;;;;;4813943;29;20070;-83
2021/05/21 07:58:42;;;;;;;1.20;0.40;;;16.10;51.70;;;;;;4796777;29;20095;-83
2021/05/21 08:01:09;;;;;;;3.35;0.38;;;16.20;51.40;;;;;;4821731;29;20054;-83
